KLWV

Lawrenceville-Vincennes International Airport

Lawrenceville, Illinois, USA
METAR KLWV 212307Z AUTO 31014KT 10SM SCT025 OVC040 23/18 A2994 RMK AO2 T02330178
Observed Flight Rules
Aug-21 @ 23:07 UTC (39 minutes ago) Visual Flight Rules
Wind Visibility Clouds
310° at 14 knots 10 miles
  • Scattered at 2,500' AGL
  • Overcast at 4,000' AGL
Temperatures Readings
Current 23°C / 73°F
Dewpoint 18°C / 64°F
Humidity 74%
Altimeter 29.94" Hg
Pressure 1014 hPa
Elevation 131
METAR KLWV 212307Z AUTO 31014KT 10SM SCT025 OVC040 23/18 A2994 RMK AO2 T02330178
Observed Flight Rules
Aug-21 @ 23:07 UTC
(39 minutes ago)
VFR
Wind Visibility
310° at 14 knots 10 miles
Clouds
  • Scattered at 2,500' AGL
  • Overcast at 4,000' AGL
Temperature Dewpoint
23°C / 73°F 18°C / 64°F
Humidity Altimeter Pressure
74% 29.94" Hg 1014 hPa